Pagina principale
METAR-TAF:

METAR-TAF

Aeroporti :

Aeroporto di Torino-Caselle

Torino, Italia

latitudine: 45-13N, longitudine: 007-39E, altezza: 301 m

Osservazione

Il bollettino è stato emesso 10 minuti fa, alle 23:50 UTC
Vento 4 kt da nord
Temperature 18°C
Umidità 77%
Pressione 1015 hPa
Visibilità 10 km o più
nessuna nube inferiore a 1500 m e nessun cumulonembo

METAR: LIMF 162350Z 36004KT CAVOK 18/14 Q1015

Ora: 02:00 (00:00 UTC)

Previsione

Il bollettino è stato emesso 1 ora e 0 minuti fa, alle 23:00 UTC
Previsione valida dal 17 alle 00 UTC al 17 alle 24 UTC
Vento 5 kt da direzioni variabili
Visibilità 10 km o più
nessuna nube inferiore a 1500 m e nessun cumulonembo

TAF: LIMF 162300Z 1700/1724 VRB05KT CAVOK

Osservazioni e previsioni meteorologiche di più di 4000 aeroporti (messaggi METAR e TAF).

Le stazioni disponibili sono rappresentate dai dischi gialli e rossi sulla carta.

Puntare il mouse per vedere il nome della stazione.

Clicca sopra per visualizzare le osservazioni e previsioni meteorologiche.

Per cambiare la mappa : fare clic sui pulsanti verdi con una croce nera per ingrandire, il pulsante verde con un trattino per diminuire, o sulla freccia verde per le mappe adiacenti.


METAR-TAF: